createdAt,value
2018-09-08T00:00:58.071Z,99.99
2018-09-08T00:01:58.081Z,99.99
2018-09-08T00:02:58.082Z,99.99
2018-09-08T00:03:58.078Z,99.99
2018-09-08T00:04:58.090Z,99.99
2018-09-08T00:05:58.728Z,99.99
2018-09-08T00:06:58.108Z,99.99
2018-09-08T00:07:58.100Z,99.99
2018-09-08T00:08:58.130Z,99.99
2018-09-08T00:09:58.087Z,99.99
2018-09-08T00:10:58.088Z,99.99
2018-09-08T00:11:58.095Z,99.99
2018-09-08T00:12:58.093Z,99.99
2018-09-08T00:13:58.112Z,99.99
2018-09-08T00:14:58.116Z,99.99
2018-09-08T00:15:58.118Z,99.99
2018-09-08T00:16:58.106Z,99.99
2018-09-08T00:17:58.104Z,99.99
2018-09-08T00:18:58.108Z,99.99
2018-09-08T00:19:58.115Z,99.99
2018-09-08T00:20:58.132Z,99.99
2018-09-08T00:21:58.131Z,99.99
2018-09-08T00:22:58.129Z,99.99
2018-09-08T00:23:58.223Z,99.99
2018-09-08T00:24:58.153Z,99.99
2018-09-08T00:25:58.118Z,99.99
2018-09-08T00:26:58.150Z,99.99
2018-09-08T00:27:58.137Z,99.99
2018-09-08T00:28:58.122Z,99.99
2018-09-08T00:29:58.129Z,99.99
2018-09-08T00:30:58.161Z,99.99
2018-09-08T00:31:58.139Z,99.99
2018-09-08T00:32:58.191Z,99.99
2018-09-08T00:33:58.141Z,99.99
2018-09-08T00:34:58.196Z,99.99
2018-09-08T00:35:58.149Z,99.99
2018-09-08T00:36:58.738Z,99.99
2018-09-08T00:37:58.157Z,99.99
2018-09-08T00:38:58.168Z,99.99
2018-09-08T00:39:58.173Z,99.99
2018-09-08T00:40:58.162Z,99.99
2018-09-08T00:41:58.151Z,99.99
2018-09-08T00:42:58.171Z,99.99
2018-09-08T00:43:58.180Z,99.99
2018-09-08T00:44:58.152Z,99.99
2018-09-08T00:45:58.239Z,99.99
2018-09-08T00:46:58.181Z,99.99
2018-09-08T00:47:58.166Z,99.99
2018-09-08T00:48:58.158Z,99.99
2018-09-08T00:49:59.795Z,99.99
2018-09-08T00:50:58.213Z,99.99
2018-09-08T00:51:58.173Z,99.99
2018-09-08T00:52:58.194Z,99.99
2018-09-08T00:53:58.198Z,99.99
2018-09-08T00:54:58.169Z,99.99
2018-09-08T00:55:58.202Z,99.99
2018-09-08T00:56:58.182Z,99.99
2018-09-08T00:57:58.182Z,99.99
2018-09-08T00:58:58.202Z,99.99
2018-09-08T00:59:58.189Z,99.99
2018-09-08T01:00:58.191Z,99.99
2018-09-08T01:01:58.288Z,99.99
2018-09-08T01:02:58.204Z,99.99
2018-09-08T01:03:58.203Z,99.99
2018-09-08T01:04:58.193Z,99.99
2018-09-08T01:05:58.251Z,99.99
2018-09-08T01:06:58.231Z,99.99
2018-09-08T01:07:58.224Z,99.99
2018-09-08T01:08:58.216Z,99.99
2018-09-08T01:09:58.210Z,99.99
2018-09-08T01:10:58.197Z,99.99
2018-09-08T01:11:58.217Z,99.99
2018-09-08T01:12:58.208Z,99.99
2018-09-08T01:13:58.206Z,99.99
2018-09-08T01:14:58.203Z,99.99
2018-09-08T01:15:58.212Z,99.99
2018-09-08T01:16:58.218Z,99.99
2018-09-08T01:17:58.203Z,99.99
2018-09-08T01:18:58.230Z,99.99
2018-09-08T01:19:58.222Z,99.99
2018-09-08T01:20:58.250Z,99.99
2018-09-08T01:21:58.231Z,99.99
2018-09-08T01:22:58.228Z,99.99
2018-09-08T01:23:58.239Z,99.99
2018-09-08T01:24:58.233Z,99.99
2018-09-08T01:25:58.267Z,99.99
2018-09-08T01:26:58.264Z,99.99
2018-09-08T01:27:58.313Z,99.99
2018-09-08T01:28:58.264Z,99.99
2018-09-08T01:29:58.238Z,99.99
2018-09-08T01:30:59.255Z,99.99
2018-09-08T01:31:58.255Z,99.99
2018-09-08T01:32:58.261Z,99.99
2018-09-08T01:33:58.249Z,99.99
2018-09-08T01:34:58.251Z,99.99
2018-09-08T01:35:58.253Z,99.99
2018-09-08T01:36:58.253Z,99.99
2018-09-08T01:37:58.277Z,99.99
2018-09-08T01:38:58.257Z,99.99
2018-09-08T01:39:58.273Z,99.99
2018-09-08T01:40:58.269Z,99.99
2018-09-08T01:41:58.264Z,99.99
2018-09-08T01:42:58.298Z,99.99
2018-09-08T01:43:58.395Z,99.99
2018-09-08T01:44:58.267Z,99.99
2018-09-08T01:45:58.267Z,99.99
2018-09-08T01:46:58.277Z,99.99
2018-09-08T01:47:58.277Z,99.99
2018-09-08T01:48:58.269Z,99.99
2018-09-08T01:49:58.293Z,99.99
2018-09-08T01:50:58.266Z,99.99
2018-09-08T01:51:58.274Z,99.99
2018-09-08T01:52:58.309Z,99.99
2018-09-08T01:53:58.279Z,99.99
2018-09-08T01:54:58.286Z,99.99
2018-09-08T01:55:58.277Z,99.99
2018-09-08T01:56:58.288Z,99.99
2018-09-08T01:57:58.336Z,99.99
2018-09-08T01:58:58.294Z,99.99
2018-09-08T01:59:58.301Z,99.99
2018-09-08T02:00:58.302Z,99.99
2018-09-08T02:01:58.402Z,99.99
2018-09-08T02:02:58.314Z,99.99
2018-09-08T02:03:58.308Z,99.85
2018-09-08T02:04:58.321Z,99.62
2018-09-08T02:05:58.357Z,99.99
2018-09-08T02:06:58.350Z,98.80
2018-09-08T02:07:58.339Z,97.99
2018-09-08T02:08:58.314Z,98.85
2018-09-08T02:09:58.309Z,99.71
2018-09-08T02:10:58.314Z,98.61
2018-09-08T02:11:58.507Z,98.13
2018-09-08T02:12:58.327Z,98.13
2018-09-08T02:13:58.308Z,98.32
2018-09-08T02:14:58.384Z,98.23
2018-09-08T02:15:58.334Z,98.32
2018-09-08T02:16:58.332Z,98.13
2018-09-08T02:17:58.359Z,98.32
2018-09-08T02:18:58.341Z,97.56
2018-09-08T02:19:58.330Z,97.47
2018-09-08T02:20:58.341Z,95.94
2018-09-08T02:21:58.342Z,97.75
2018-09-08T02:22:58.348Z,97.75
2018-09-08T02:23:58.373Z,97.56
2018-09-08T02:24:58.348Z,97.18
2018-09-08T02:25:58.363Z,97.56
2018-09-08T02:26:58.383Z,96.13
2018-09-08T02:27:58.447Z,96.22
2018-09-08T02:28:58.408Z,95.84
2018-09-08T02:29:58.389Z,96.51
2018-09-08T02:30:58.403Z,96.42
2018-09-08T02:31:58.344Z,96.32
2018-09-08T02:32:58.336Z,96.03
2018-09-08T02:33:58.359Z,94.98
2018-09-08T02:34:58.428Z,95.75
2018-09-08T02:35:58.370Z,95.75
2018-09-08T02:36:59.380Z,94.89
2018-09-08T02:37:58.412Z,94.70
2018-09-08T02:38:58.392Z,95.08
2018-09-08T02:39:58.384Z,94.60
2018-09-08T02:40:58.406Z,94.41
2018-09-08T02:41:58.376Z,94.70
2018-09-08T02:42:58.360Z,94.89
2018-09-08T02:43:58.383Z,94.41
2018-09-08T02:44:58.382Z,93.55
2018-09-08T02:45:58.401Z,95.36
2018-09-08T02:46:58.395Z,93.07
2018-09-08T02:47:58.386Z,93.46
2018-09-08T02:48:58.415Z,93.84
2018-09-08T02:49:58.414Z,93.36
2018-09-08T02:50:58.390Z,94.12
2018-09-08T02:51:58.368Z,93.55
2018-09-08T02:52:58.441Z,92.41
2018-09-08T02:53:58.417Z,92.31
2018-09-08T02:54:58.414Z,93.84
2018-09-08T02:55:58.417Z,93.93
2018-09-08T02:56:58.418Z,93.93
2018-09-08T02:57:58.393Z,93.36
2018-09-08T02:58:58.434Z,92.02
2018-09-08T02:59:58.435Z,92.41
2018-09-08T03:00:58.459Z,93.07
2018-09-08T03:01:58.402Z,92.21
2018-09-08T03:02:58.413Z,91.74
2018-09-08T03:03:58.420Z,91.93
2018-09-08T03:04:58.396Z,91.45
2018-09-08T03:05:58.384Z,90.50
2018-09-08T03:06:58.392Z,90.78
2018-09-08T03:07:58.398Z,89.92
2018-09-08T03:08:58.408Z,89.83
2018-09-08T03:09:58.411Z,88.87
2018-09-08T03:10:58.422Z,88.78
2018-09-08T03:11:58.416Z,88.59
2018-09-08T03:12:58.404Z,87.63
2018-09-08T03:13:58.401Z,87.63
2018-09-08T03:14:58.414Z,88.01
2018-09-08T03:15:58.412Z,88.20
2018-09-08T03:16:58.438Z,87.73
2018-09-08T03:17:58.435Z,88.40
2018-09-08T03:18:58.462Z,87.92
2018-09-08T03:19:58.467Z,88.11
2018-09-08T03:20:58.421Z,87.92
2018-09-08T03:21:58.415Z,88.40
2018-09-08T03:22:58.430Z,87.63
2018-09-08T03:23:58.443Z,87.73
2018-09-08T03:24:58.450Z,87.92
2018-09-08T03:25:58.424Z,87.35
2018-09-08T03:26:58.441Z,86.77
2018-09-08T03:27:58.428Z,87.25
2018-09-08T03:28:58.444Z,87.25
2018-09-08T03:29:58.444Z,86.96
2018-09-08T03:30:58.430Z,85.72
2018-09-08T03:31:58.459Z,85.63
2018-09-08T03:32:59.290Z,85.63
2018-09-08T03:33:58.490Z,84.67
2018-09-08T03:34:58.460Z,84.29
2018-09-08T03:35:58.449Z,83.43
2018-09-08T03:36:58.486Z,81.71
2018-09-08T03:37:58.497Z,82.53
2018-09-08T03:38:58.453Z,82.91
2018-09-08T03:39:59.291Z,81.14
2018-09-08T03:40:58.460Z,82.15
2018-09-08T03:41:58.481Z,81.01
2018-09-08T03:42:58.466Z,81.20
2018-09-08T03:43:58.460Z,81.01
2018-09-08T03:44:58.461Z,79.77
2018-09-08T03:45:58.463Z,79.86
2018-09-08T03:46:58.471Z,81.10
2018-09-08T03:47:58.457Z,81.01
2018-09-08T03:48:58.459Z,81.01
2018-09-08T03:49:58.476Z,81.01
2018-09-08T03:50:58.481Z,79.57
2018-09-08T03:51:58.475Z,80.24
2018-09-08T03:52:58.584Z,79.96
2018-09-08T03:53:58.484Z,79.67
2018-09-08T03:54:58.485Z,79.28
2018-09-08T03:55:58.476Z,79.57
2018-09-08T03:56:58.500Z,79.96
2018-09-08T03:57:58.498Z,79.67
2018-09-08T03:58:58.572Z,78.33
2018-09-08T03:59:58.479Z,78.05
2018-09-08T04:00:58.509Z,75.66
2018-09-08T04:01:58.481Z,76.04
2018-09-08T04:02:58.485Z,76.71
2018-09-08T04:03:58.569Z,76.23
2018-09-08T04:04:58.486Z,76.81
2018-09-08T04:05:58.638Z,76.90
2018-09-08T04:06:58.506Z,77.09
2018-09-08T04:07:58.492Z,76.04
2018-09-08T04:08:58.498Z,75.47
2018-09-08T04:09:58.539Z,74.99
2018-09-08T04:10:58.518Z,74.71
2018-09-08T04:11:58.526Z,74.52
2018-09-08T04:12:58.526Z,74.42
2018-09-08T04:13:58.529Z,75.57
2018-09-08T04:14:58.517Z,73.94
2018-09-08T04:15:58.525Z,72.89
2018-09-08T04:16:58.502Z,71.56
2018-09-08T04:17:58.562Z,71.84
2018-09-08T04:18:58.516Z,72.03
2018-09-08T04:19:58.558Z,72.13
2018-09-08T04:20:58.517Z,71.08
2018-09-08T04:21:58.513Z,72.51
2018-09-08T04:22:58.567Z,71.37
2018-09-08T04:23:58.677Z,70.42
2018-09-08T04:24:58.515Z,69.46
2018-09-08T04:25:58.597Z,69.46
2018-09-08T04:26:58.546Z,70.03
2018-09-08T04:27:58.543Z,70.03
2018-09-08T04:28:58.525Z,68.88
2018-09-08T04:29:58.532Z,68.60
2018-09-08T04:30:58.536Z,67.83
2018-09-08T04:31:58.530Z,67.83
2018-09-08T04:32:58.526Z,66.88
2018-09-08T04:33:58.519Z,66.88
2018-09-08T04:34:58.534Z,67.36
2018-09-08T04:35:58.539Z,67.07
2018-09-08T04:36:58.543Z,67.46
2018-09-08T04:37:58.531Z,66.50
2018-09-08T04:38:58.619Z,65.07
2018-09-08T04:39:58.533Z,65.74
2018-09-08T04:40:58.632Z,64.59
2018-09-08T04:41:58.552Z,65.93
2018-09-08T04:42:58.565Z,65.83
2018-09-08T04:43:58.568Z,65.17
2018-09-08T04:44:58.579Z,65.07
2018-09-08T04:45:58.548Z,64.50
2018-09-08T04:46:58.579Z,64.40
2018-09-08T04:47:58.547Z,64.59
2018-09-08T04:48:58.550Z,65.07
2018-09-08T04:49:58.556Z,64.78
2018-09-08T04:50:58.547Z,65.07
2018-09-08T04:51:58.557Z,64.56
2018-09-08T04:52:58.550Z,63.92
2018-09-08T04:53:58.559Z,63.07
2018-09-08T04:54:58.571Z,63.04
2018-09-08T04:55:58.556Z,63.16
2018-09-08T04:56:58.634Z,63.92
2018-09-08T04:57:58.588Z,63.73
2018-09-08T04:58:58.584Z,63.54
2018-09-08T04:59:59.313Z,63.35
2018-09-08T05:00:58.579Z,62.78
2018-09-08T05:01:58.571Z,62.30
2018-09-08T05:02:58.611Z,63.54
2018-09-08T05:03:58.609Z,63.32
2018-09-08T05:04:58.633Z,63.73
2018-09-08T05:05:58.619Z,63.45
2018-09-08T05:06:58.602Z,62.97
2018-09-08T05:07:58.600Z,64.12
2018-09-08T05:08:58.617Z,65.17
2018-09-08T05:09:58.644Z,63.92
2018-09-08T05:10:58.607Z,65.07
2018-09-08T05:11:58.653Z,64.21
2018-09-08T05:12:58.616Z,64.02
2018-09-08T05:13:58.595Z,64.97
2018-09-08T05:14:58.578Z,64.12
2018-09-08T05:15:58.583Z,64.50
2018-09-08T05:16:58.589Z,64.97
2018-09-08T05:17:58.591Z,64.31
2018-09-08T05:18:58.628Z,64.40
2018-09-08T05:19:58.617Z,64.31
2018-09-08T05:20:59.318Z,64.88
2018-09-08T05:21:58.605Z,64.59
2018-09-08T05:22:58.602Z,64.31
2018-09-08T05:23:58.627Z,63.73
2018-09-08T05:24:58.624Z,63.16
2018-09-08T05:25:58.598Z,64.50
2018-09-08T05:26:58.611Z,65.83
2018-09-08T05:27:58.619Z,65.55
2018-09-08T05:28:58.613Z,66.41
2018-09-08T05:29:58.605Z,66.50
2018-09-08T05:30:58.621Z,67.83
2018-09-08T05:31:58.610Z,72.26
2018-09-08T05:32:58.617Z,75.70
2018-09-08T05:33:58.638Z,80.90
2018-09-08T05:34:58.662Z,84.62
2018-09-08T05:35:58.616Z,87.58
2018-09-08T05:36:58.646Z,93.07
2018-09-08T05:37:58.623Z,94.60
2018-09-08T05:38:58.623Z,95.70
2018-09-08T05:39:58.705Z,96.27
2018-09-08T05:40:58.637Z,97.23
2018-09-08T05:41:58.644Z,99.99
2018-09-08T05:42:58.687Z,99.99
2018-09-08T05:43:58.747Z,99.99
2018-09-08T05:44:58.623Z,99.99
2018-09-08T05:45:58.629Z,99.99
2018-09-08T05:46:58.705Z,99.99
2018-09-08T05:47:58.650Z,99.99
2018-09-08T05:48:58.671Z,99.99
2018-09-08T05:49:58.630Z,99.99
2018-09-08T05:50:58.638Z,99.99
2018-09-08T05:51:58.629Z,99.99
2018-09-08T05:52:58.652Z,99.99
2018-09-08T05:53:58.665Z,99.99
2018-09-08T05:54:58.644Z,99.99
2018-09-08T05:55:58.697Z,99.99
2018-09-08T05:56:58.782Z,99.99
2018-09-08T05:57:58.694Z,99.99
2018-09-08T05:58:58.657Z,99.99
2018-09-08T05:59:58.651Z,99.99
2018-09-08T06:00:58.683Z,99.99
2018-09-08T06:01:58.659Z,99.99
2018-09-08T06:02:58.684Z,99.99
2018-09-08T06:03:58.658Z,99.99
2018-09-08T06:04:58.737Z,99.99
2018-09-08T06:05:58.670Z,99.99
2018-09-08T06:06:58.674Z,99.99
2018-09-08T06:07:58.677Z,99.99
2018-09-08T06:08:58.689Z,99.99
2018-09-08T06:09:58.672Z,99.99
2018-09-08T06:10:58.692Z,99.63
2018-09-08T06:11:58.687Z,98.34
2018-09-08T06:12:58.688Z,98.68
2018-09-08T06:13:58.697Z,97.38
2018-09-08T06:14:58.692Z,95.79
2018-09-08T06:15:58.721Z,95.36
2018-09-08T06:16:58.707Z,93.63
2018-09-08T06:17:58.706Z,93.48
2018-09-08T06:18:58.714Z,92.13
2018-09-08T06:19:58.707Z,91.66
2018-09-08T06:20:58.693Z,91.85
2018-09-08T06:21:58.696Z,92.61
2018-09-08T06:22:58.700Z,92.04
2018-09-08T06:23:58.723Z,91.31
2018-09-08T06:24:58.710Z,90.69
2018-09-08T06:25:58.717Z,90.55
2018-09-08T06:26:58.731Z,90.69
2018-09-08T06:27:58.716Z,90.79
2018-09-08T06:28:58.714Z,90.79
2018-09-08T06:29:58.768Z,90.26
2018-09-08T06:30:58.742Z,91.46
2018-09-08T06:31:58.752Z,91.94
2018-09-08T06:32:58.781Z,91.03
2018-09-08T06:33:58.744Z,90.06
2018-09-08T06:34:58.807Z,89.87
2018-09-08T06:35:58.731Z,89.78
2018-09-08T06:36:58.776Z,89.97
2018-09-08T06:37:58.799Z,89.20
2018-09-08T06:38:58.769Z,89.53
2018-09-08T06:39:58.762Z,88.76
2018-09-08T06:40:58.770Z,89.05
2018-09-08T06:41:58.765Z,87.94
2018-09-08T06:42:58.760Z,88.09
2018-09-08T06:43:58.807Z,88.18
2018-09-08T06:44:58.870Z,87.55
2018-09-08T06:45:58.797Z,86.11
2018-09-08T06:46:58.789Z,85.67
2018-09-08T06:47:58.779Z,85.09
2018-09-08T06:48:58.777Z,84.86
2018-09-08T06:49:58.785Z,85.91
2018-09-08T06:50:59.358Z,85.77
2018-09-08T06:51:58.799Z,86.21
2018-09-08T06:52:58.808Z,86.59
2018-09-08T06:53:58.821Z,86.59
2018-09-08T06:54:58.826Z,84.75
2018-09-08T06:55:58.801Z,84.70
2018-09-08T06:56:58.814Z,84.31
2018-09-08T06:57:58.859Z,83.11
2018-09-08T06:58:58.837Z,83.92
2018-09-08T06:59:58.844Z,83.63
2018-09-08T07:00:58.826Z,82.03
2018-09-08T07:01:58.838Z,81.90
2018-09-08T07:02:59.358Z,83.73
2018-09-08T07:03:58.875Z,81.93
2018-09-08T07:04:58.860Z,81.02
2018-09-08T07:05:58.890Z,82.96
2018-09-08T07:06:58.885Z,83.40
2018-09-08T07:07:58.894Z,84.46
2018-09-08T07:08:58.890Z,85.71
2018-09-08T07:09:58.882Z,84.89
2018-09-08T07:10:58.899Z,84.83
2018-09-08T07:11:58.911Z,82.13
2018-09-08T07:12:58.891Z,82.38
2018-09-08T07:13:58.895Z,81.90
2018-09-08T07:14:58.936Z,82.90
2018-09-08T07:15:59.375Z,81.88
2018-09-08T07:16:58.903Z,80.72
2018-09-08T07:17:58.916Z,79.89
2018-09-08T07:18:58.936Z,78.91
2018-09-08T07:19:58.925Z,76.59
2018-09-08T07:20:58.965Z,76.04
2018-09-08T07:21:58.942Z,75.60
2018-09-08T07:22:58.973Z,76.91
2018-09-08T07:23:58.982Z,77.32
2018-09-08T07:24:58.987Z,77.34
2018-09-08T07:25:58.960Z,79.17
2018-09-08T07:26:59.026Z,79.80
2018-09-08T07:27:59.045Z,81.07
2018-09-08T07:28:59.076Z,82.76
2018-09-08T07:29:58.985Z,83.73
2018-09-08T07:30:59.020Z,84.65
2018-09-08T07:31:59.025Z,84.84
2018-09-08T07:32:59.009Z,85.19
2018-09-08T07:33:59.035Z,87.60
2018-09-08T07:34:59.031Z,88.95
2018-09-08T07:35:59.086Z,90.01
2018-09-08T07:36:59.109Z,89.43
2018-09-08T07:37:59.042Z,90.78
2018-09-08T07:38:59.881Z,89.09
2018-09-08T07:39:59.885Z,88.95
2018-09-08T07:40:59.100Z,91.13
2018-09-08T07:41:59.102Z,90.93
2018-09-08T07:42:59.133Z,92.71
2018-09-08T07:43:59.108Z,93.38
2018-09-08T07:44:59.106Z,94.88
2018-09-08T07:45:59.192Z,95.65
2018-09-08T07:46:59.136Z,94.54
2018-09-08T07:47:59.115Z,95.79
2018-09-08T07:48:59.121Z,97.14
2018-09-08T07:49:59.127Z,95.31
2018-09-08T07:50:59.895Z,94.92
2018-09-08T07:51:59.141Z,94.92
2018-09-08T07:52:59.147Z,93.19
2018-09-08T07:53:59.167Z,91.70
2018-09-08T07:54:59.165Z,93.38
2018-09-08T07:55:59.154Z,93.82
2018-09-08T07:56:59.231Z,91.99
2018-09-08T07:57:59.179Z,89.23
2018-09-08T07:58:59.175Z,90.11
2018-09-08T07:59:59.184Z,90.93
2018-09-08T08:00:59.185Z,91.65
2018-09-08T08:01:59.189Z,90.00
2018-09-08T08:02:59.193Z,87.20
2018-09-08T08:03:59.201Z,86.66
2018-09-08T08:04:59.898Z,83.42
2018-09-08T08:05:59.245Z,82.65
2018-09-08T08:06:59.229Z,81.32
2018-09-08T08:07:59.250Z,80.49
2018-09-08T08:08:59.308Z,77.82
2018-09-08T08:09:59.237Z,76.04
2018-09-08T08:10:59.257Z,75.85
2018-09-08T08:11:59.260Z,76.10
2018-09-08T08:12:59.286Z,77.22
2018-09-08T08:13:59.290Z,78.25
2018-09-08T08:14:59.292Z,78.54
2018-09-08T08:15:59.275Z,78.48
2018-09-08T08:16:59.330Z,77.94
2018-09-08T08:17:59.336Z,77.55
2018-09-08T08:18:59.319Z,77.75
2018-09-08T08:19:59.332Z,77.65
2018-09-08T08:20:59.329Z,78.54
2018-09-08T08:21:59.380Z,78.44
2018-09-08T08:22:59.324Z,79.66
2018-09-08T08:23:59.342Z,80.28
2018-09-08T08:24:59.408Z,78.09
2018-09-08T08:25:59.363Z,77.01
2018-09-08T08:26:59.384Z,75.79
2018-09-08T08:27:59.391Z,75.34
2018-09-08T08:28:59.400Z,74.28
2018-09-08T08:29:59.908Z,73.89
2018-09-08T08:30:59.498Z,73.50
2018-09-08T08:31:59.407Z,73.27
2018-09-08T08:32:59.427Z,75.70
2018-09-08T08:33:59.463Z,77.20
2018-09-08T08:34:59.462Z,76.78
2018-09-08T08:35:59.464Z,77.50
2018-09-08T08:36:59.487Z,76.56
2018-09-08T08:37:59.550Z,76.14
2018-09-08T08:38:59.491Z,75.98
2018-09-08T08:40:00.421Z,75.54
2018-09-08T08:40:59.510Z,75.34
2018-09-08T08:41:59.537Z,74.57
2018-09-08T08:42:59.526Z,73.66
2018-09-08T08:43:59.526Z,78.25
2018-09-08T08:44:59.627Z,78.52
2018-09-08T08:45:59.596Z,77.44
2018-09-08T08:46:59.564Z,75.40
2018-09-08T08:47:59.593Z,75.54
2018-09-08T08:48:59.602Z,74.63
2018-09-08T08:49:59.604Z,76.33
2018-09-08T08:50:59.634Z,76.14
2018-09-08T08:51:59.664Z,76.91
2018-09-08T08:52:59.666Z,76.62
2018-09-08T08:53:59.647Z,76.43
2018-09-08T08:55:00.434Z,76.68
2018-09-08T08:55:59.681Z,76.01
2018-09-08T08:56:59.668Z,76.68
2018-09-08T08:57:59.683Z,76.74
2018-09-08T08:58:59.688Z,78.09
2018-09-08T08:59:59.710Z,78.92
2018-09-08T09:00:59.716Z,79.35
2018-09-08T09:01:59.744Z,78.44
2018-09-08T09:02:59.783Z,79.31
2018-09-08T09:03:59.788Z,79.12
2018-09-08T09:04:59.755Z,77.76
2018-09-08T09:05:59.804Z,78.54
2018-09-08T09:06:59.795Z,77.94
2018-09-08T09:07:59.793Z,77.36
2018-09-08T09:08:59.850Z,77.26
2018-09-08T09:09:59.840Z,77.30
2018-09-08T09:10:59.948Z,75.43
2018-09-08T09:11:59.822Z,75.50
2018-09-08T09:12:59.948Z,74.79
2018-09-08T09:13:59.853Z,75.43
2018-09-08T09:14:59.872Z,76.24
2018-09-08T09:15:59.879Z,76.86
2018-09-08T09:16:59.953Z,74.76
2018-09-08T09:17:59.963Z,74.98
2018-09-08T09:19:00.406Z,76.49
2018-09-08T09:19:59.912Z,77.17
2018-09-08T09:21:00.342Z,76.62
2018-09-08T09:21:59.969Z,75.07
2018-09-08T09:23:00.072Z,78.08
2018-09-08T09:24:00.042Z,77.73
2018-09-08T09:25:00.041Z,75.89
2018-09-08T09:25:59.988Z,74.59
2018-09-08T09:26:59.994Z,75.17
2018-09-08T09:28:00.962Z,75.17
2018-09-08T09:29:00.048Z,76.04
2018-09-08T09:30:00.036Z,75.85
2018-09-08T09:31:00.028Z,75.50
2018-09-08T09:32:00.072Z,76.55
2018-09-08T09:33:00.076Z,77.07
2018-09-08T09:34:00.060Z,77.17
2018-09-08T09:35:00.083Z,77.42
2018-09-08T09:36:00.119Z,77.13
2018-09-08T09:37:00.122Z,76.32
2018-09-08T09:38:00.105Z,77.19
2018-09-08T09:39:00.121Z,77.44
2018-09-08T09:40:00.141Z,78.41
2018-09-08T09:41:00.143Z,78.17
2018-09-08T09:42:00.178Z,78.85
2018-09-08T09:43:00.264Z,78.94
2018-09-08T09:44:00.175Z,79.95
2018-09-08T09:45:00.238Z,78.50
2018-09-08T09:46:00.207Z,79.04
2018-09-08T09:47:00.201Z,78.41
2018-09-08T09:48:00.271Z,78.41
2018-09-08T09:49:00.251Z,78.34
2018-09-08T09:50:00.277Z,77.09
2018-09-08T09:51:00.266Z,77.92
2018-09-08T09:52:00.256Z,77.83
2018-09-08T09:53:00.353Z,77.28
2018-09-08T09:54:00.271Z,76.55
2018-09-08T09:55:00.277Z,76.61
2018-09-08T09:56:00.287Z,75.89
2018-09-08T09:57:00.289Z,77.63
2018-09-08T09:58:00.303Z,78.21
2018-09-08T09:59:00.354Z,77.63
2018-09-08T10:00:00.333Z,75.06
2018-09-08T10:01:00.408Z,76.06
2018-09-08T10:02:00.356Z,77.73
2018-09-08T10:03:00.368Z,77.38
2018-09-08T10:04:00.365Z,76.51
2018-09-08T10:05:00.388Z,76.22
2018-09-08T10:06:00.431Z,76.61
2018-09-08T10:07:00.408Z,77.28
2018-09-08T10:08:00.421Z,78.83
2018-09-08T10:09:00.416Z,77.86
2018-09-08T10:10:00.476Z,77.38
2018-09-08T10:11:00.450Z,77.09
2018-09-08T10:12:00.497Z,76.86
2018-09-08T10:13:00.514Z,78.56
2018-09-08T10:14:00.498Z,77.98
2018-09-08T10:15:00.488Z,78.75
2018-09-08T10:16:00.624Z,78.27
2018-09-08T10:17:00.529Z,77.88
2018-09-08T10:18:00.531Z,78.11
2018-09-08T10:19:00.532Z,77.88
2018-09-08T10:20:00.548Z,77.17
2018-09-08T10:21:00.543Z,78.91
2018-09-08T10:22:00.544Z,79.10
2018-09-08T10:23:00.609Z,79.10
2018-09-08T10:24:05.152Z,79.00
2018-09-08T10:25:00.572Z,78.27
2018-09-08T10:26:00.562Z,78.41
2018-09-08T10:27:00.620Z,78.21
2018-09-08T10:28:00.586Z,77.83
2018-09-08T10:29:00.603Z,77.38
2018-09-08T10:30:00.947Z,75.06
2018-09-08T10:31:00.620Z,75.16
2018-09-08T10:32:00.670Z,75.10
2018-09-08T10:33:00.643Z,74.38
2018-09-08T10:34:00.715Z,75.84
2018-09-08T10:35:00.668Z,75.35
2018-09-08T10:36:00.714Z,77.09
2018-09-08T10:37:00.692Z,77.00
2018-09-08T10:38:00.693Z,76.03
2018-09-08T10:39:00.681Z,74.42
2018-09-08T10:40:00.708Z,74.19
2018-09-08T10:41:00.692Z,76.67
2018-09-08T10:42:00.714Z,75.70
2018-09-08T10:43:00.718Z,76.40
2018-09-08T10:44:01.501Z,77.36
2018-09-08T10:45:00.719Z,78.52
2018-09-08T10:46:00.762Z,79.93
2018-09-08T10:47:00.816Z,79.93
2018-09-08T10:48:00.771Z,80.18
2018-09-08T10:49:00.762Z,80.66
2018-09-08T10:50:00.779Z,82.39
2018-09-08T10:51:00.799Z,82.68
2018-09-08T10:52:00.813Z,83.11
2018-09-08T10:53:00.806Z,82.59
2018-09-08T10:54:00.848Z,83.51
2018-09-08T10:55:00.830Z,84.66
2018-09-08T10:56:00.839Z,85.82
2018-09-08T10:57:00.835Z,85.24
2018-09-08T10:58:00.832Z,86.16
2018-09-08T10:59:00.831Z,82.98
2018-09-08T11:00:00.837Z,82.41
2018-09-08T11:01:00.837Z,82.79
2018-09-08T11:02:01.035Z,82.60
2018-09-08T11:03:00.867Z,84.23
2018-09-08T11:04:00.870Z,83.08
2018-09-08T11:05:00.873Z,83.80
2018-09-08T11:06:00.868Z,83.51
2018-09-08T11:07:00.889Z,82.35
2018-09-08T11:08:00.905Z,82.74
2018-09-08T11:09:00.898Z,84.28
2018-09-08T11:10:01.515Z,81.01
2018-09-08T11:11:00.923Z,81.29
2018-09-08T11:12:00.920Z,81.68
2018-09-08T11:13:00.910Z,81.58
2018-09-08T11:14:00.910Z,82.16
2018-09-08T11:15:00.936Z,81.62
2018-09-08T11:16:00.949Z,83.70
2018-09-08T11:17:01.017Z,83.99
2018-09-08T11:18:00.990Z,83.94
2018-09-08T11:19:00.935Z,83.36
2018-09-08T11:20:00.945Z,82.82
2018-09-08T11:21:00.985Z,83.88
2018-09-08T11:22:00.961Z,82.72
2018-09-08T11:23:01.007Z,81.57
2018-09-08T11:24:00.994Z,82.62
2018-09-08T11:25:00.987Z,80.79
2018-09-08T11:26:00.985Z,80.12
2018-09-08T11:27:01.017Z,80.18
2018-09-08T11:28:01.009Z,82.43
2018-09-08T11:29:01.047Z,80.85
2018-09-08T11:30:01.048Z,80.56
2018-09-08T11:31:01.010Z,80.85
2018-09-08T11:32:01.068Z,80.62
2018-09-08T11:33:01.049Z,81.48
2018-09-08T11:34:01.052Z,82.45
2018-09-08T11:35:01.030Z,82.83
2018-09-08T11:36:01.035Z,82.89
2018-09-08T11:37:01.034Z,83.08
2018-09-08T11:38:01.140Z,82.49
2018-09-08T11:39:01.065Z,82.34
2018-09-08T11:40:01.054Z,80.89
2018-09-08T11:41:01.056Z,79.29
2018-09-08T11:42:01.077Z,78.81
2018-09-08T11:43:01.064Z,78.61
2018-09-08T11:44:01.078Z,79.00
2018-09-08T11:45:01.119Z,78.67
2018-09-08T11:46:01.090Z,80.41
2018-09-08T11:47:01.122Z,80.60
2018-09-08T11:48:01.139Z,81.47
2018-09-08T11:49:01.097Z,82.49
2018-09-08T11:50:01.099Z,83.07
2018-09-08T11:51:01.112Z,83.16
2018-09-08T11:52:01.120Z,83.16
2018-09-08T11:53:01.142Z,84.56
2018-09-08T11:54:01.124Z,85.82
2018-09-08T11:55:01.222Z,85.43
2018-09-08T11:56:01.152Z,84.52
2018-09-08T11:57:01.271Z,80.79
2018-09-08T11:58:01.145Z,79.97
2018-09-08T11:59:01.602Z,78.23
2018-09-08T12:00:01.145Z,78.13
2018-09-08T12:01:01.213Z,78.23
2018-09-08T12:02:01.202Z,77.51
2018-09-08T12:03:01.239Z,78.54
2018-09-08T12:04:01.160Z,78.92
2018-09-08T12:05:01.198Z,79.46
2018-09-08T12:06:01.167Z,80.08
2018-09-08T12:07:01.192Z,79.94
2018-09-08T12:08:01.225Z,80.52
2018-09-08T12:09:01.217Z,79.46
2018-09-08T12:10:01.240Z,80.23
2018-09-08T12:11:01.192Z,81.68
2018-09-08T12:12:01.247Z,81.58
2018-09-08T12:13:01.191Z,81.20
2018-09-08T12:14:01.265Z,81.48
2018-09-08T12:15:01.221Z,81.96
2018-09-08T12:16:01.216Z,82.45
2018-09-08T12:17:01.219Z,81.91
2018-09-08T12:18:01.225Z,80.85
2018-09-08T12:19:01.283Z,81.81
2018-09-08T12:20:01.223Z,80.56
2018-09-08T12:21:01.262Z,80.94
2018-09-08T12:22:01.303Z,80.76
2018-09-08T12:23:01.352Z,80.08
2018-09-08T12:24:01.252Z,80.18
2018-09-08T12:25:01.254Z,78.92
2018-09-08T12:26:01.250Z,79.41
2018-09-08T12:27:01.345Z,78.98
2018-09-08T12:28:01.269Z,79.85
2018-09-08T12:29:01.288Z,79.85
2018-09-08T12:30:01.287Z,78.88
2018-09-08T12:31:01.374Z,79.50
2018-09-08T12:32:01.306Z,79.21
2018-09-08T12:33:01.294Z,78.44
2018-09-08T12:34:01.300Z,78.86
2018-09-08T12:35:01.329Z,78.91
2018-09-08T12:36:01.346Z,79.14
2018-09-08T12:37:01.329Z,77.69
2018-09-08T12:38:01.331Z,75.85
2018-09-08T12:39:01.344Z,76.92
2018-09-08T12:40:01.311Z,76.53
2018-09-08T12:41:01.349Z,75.67
2018-09-08T12:42:01.326Z,75.41
2018-09-08T12:43:01.347Z,75.41
2018-09-08T12:44:01.322Z,75.47
2018-09-08T12:45:01.343Z,75.37
2018-09-08T12:46:01.525Z,76.57
2018-09-08T12:47:01.357Z,74.99
2018-09-08T12:48:01.365Z,77.11
2018-09-08T12:49:01.377Z,76.53
2018-09-08T12:50:01.373Z,75.27
2018-09-08T12:51:01.384Z,77.07
2018-09-08T12:52:01.396Z,76.88
2018-09-08T12:53:01.392Z,77.26